sensor_id;sensor_type;location;lat;lon;timestamp;temperature;humidity
7214;DHT22;3648;50.614;13.830;2023-11-21T00:02:17;7.10;1.00
7214;DHT22;3648;50.614;13.830;2023-11-21T00:04:46;7.20;1.00
7214;DHT22;3648;50.614;13.830;2023-11-21T00:07:13;7.10;1.00
7214;DHT22;3648;50.614;13.830;2023-11-21T00:09:40;7.20;1.00
7214;DHT22;3648;50.614;13.830;2023-11-21T00:12:07;7.20;1.00
7214;DHT22;3648;50.614;13.830;2023-11-21T00:14:36;7.10;1.00
7214;DHT22;3648;50.614;13.830;2023-11-21T00:17:03;7.20;1.00
7214;DHT22;3648;50.614;13.830;2023-11-21T00:19:30;7.20;1.00
7214;DHT22;3648;50.614;13.830;2023-11-21T00:22:00;7.20;1.00
7214;DHT22;3648;50.614;13.830;2023-11-21T00:24:27;7.30;1.00
7214;DHT22;3648;50.614;13.830;2023-11-21T00:26:53;7.20;1.00
7214;DHT22;3648;50.614;13.830;2023-11-21T00:29:20;7.30;1.00
7214;DHT22;3648;50.614;13.830;2023-11-21T00:31:46;7.30;1.00
7214;DHT22;3648;50.614;13.830;2023-11-21T00:34:13;7.30;1.00
7214;DHT22;3648;50.614;13.830;2023-11-21T00:36:41;7.20;1.00
7214;DHT22;3648;50.614;13.830;2023-11-21T00:39:09;7.30;1.00
7214;DHT22;3648;50.614;13.830;2023-11-21T00:41:37;7.20;1.00
7214;DHT22;3648;50.614;13.830;2023-11-21T00:44:04;7.10;1.00
7214;DHT22;3648;50.614;13.830;2023-11-21T00:46:32;7.10;1.00
7214;DHT22;3648;50.614;13.830;2023-11-21T00:48:59;7.00;1.00
7214;DHT22;3648;50.614;13.830;2023-11-21T00:51:26;6.90;1.00
7214;DHT22;3648;50.614;13.830;2023-11-21T00:53:53;6.80;1.00
7214;DHT22;3648;50.614;13.830;2023-11-21T00:56:21;6.70;1.00
7214;DHT22;3648;50.614;13.830;2023-11-21T00:58:49;6.70;1.00
7214;DHT22;3648;50.614;13.830;2023-11-21T01:01:18;6.70;1.00
7214;DHT22;3648;50.614;13.830;2023-11-21T01:03:45;6.70;1.00
7214;DHT22;3648;50.614;13.830;2023-11-21T01:06:13;6.70;1.00
7214;DHT22;3648;50.614;13.830;2023-11-21T01:08:40;6.70;1.00
7214;DHT22;3648;50.614;13.830;2023-11-21T01:11:07;6.70;1.00
7214;DHT22;3648;50.614;13.830;2023-11-21T01:13:37;6.70;1.00
7214;DHT22;3648;50.614;13.830;2023-11-21T01:16:05;6.70;1.00
7214;DHT22;3648;50.614;13.830;2023-11-21T01:18:32;6.70;1.00
7214;DHT22;3648;50.614;13.830;2023-11-21T01:21:00;6.70;1.00
7214;DHT22;3648;50.614;13.830;2023-11-21T01:23:27;6.60;1.00
7214;DHT22;3648;50.614;13.830;2023-11-21T01:25:56;6.60;1.00
7214;DHT22;3648;50.614;13.830;2023-11-21T01:28:23;6.60;1.00
7214;DHT22;3648;50.614;13.830;2023-11-21T01:30:53;6.60;1.00
7214;DHT22;3648;50.614;13.830;2023-11-21T01:33:22;6.60;1.00
7214;DHT22;3648;50.614;13.830;2023-11-21T01:35:50;6.70;1.00
7214;DHT22;3648;50.614;13.830;2023-11-21T01:38:18;6.70;1.00
7214;DHT22;3648;50.614;13.830;2023-11-21T01:40:45;6.80;1.00
7214;DHT22;3648;50.614;13.830;2023-11-21T01:43:12;6.80;1.00
7214;DHT22;3648;50.614;13.830;2023-11-21T01:45:39;6.80;1.00
7214;DHT22;3648;50.614;13.830;2023-11-21T01:48:08;6.80;1.00
7214;DHT22;3648;50.614;13.830;2023-11-21T01:50:35;6.80;1.00
7214;DHT22;3648;50.614;13.830;2023-11-21T01:53:02;6.90;1.00
7214;DHT22;3648;50.614;13.830;2023-11-21T01:55:30;6.90;1.00
7214;DHT22;3648;50.614;13.830;2023-11-21T01:57:57;6.90;1.00
7214;DHT22;3648;50.614;13.830;2023-11-21T02:00:24;6.90;1.00
7214;DHT22;3648;50.614;13.830;2023-11-21T02:02:53;7.00;1.00
7214;DHT22;3648;50.614;13.830;2023-11-21T02:05:21;7.00;1.00
7214;DHT22;3648;50.614;13.830;2023-11-21T02:07:48;7.10;1.00
7214;DHT22;3648;50.614;13.830;2023-11-21T02:10:16;7.10;1.00
7214;DHT22;3648;50.614;13.830;2023-11-21T02:12:48;7.20;1.00
7214;DHT22;3648;50.614;13.830;2023-11-21T02:15:16;7.20;1.00
7214;DHT22;3648;50.614;13.830;2023-11-21T02:17:46;7.20;1.00
7214;DHT22;3648;50.614;13.830;2023-11-21T02:20:17;7.30;1.00
7214;DHT22;3648;50.614;13.830;2023-11-21T02:22:52;7.30;1.00
7214;DHT22;3648;50.614;13.830;2023-11-21T02:25:23;7.30;1.00
7214;DHT22;3648;50.614;13.830;2023-11-21T02:27:50;7.40;1.00
7214;DHT22;3648;50.614;13.830;2023-11-21T02:30:17;7.40;1.00
7214;DHT22;3648;50.614;13.830;2023-11-21T02:32:44;7.40;1.00
7214;DHT22;3648;50.614;13.830;2023-11-21T02:35:11;7.40;1.00
7214;DHT22;3648;50.614;13.830;2023-11-21T02:37:39;7.40;1.00
7214;DHT22;3648;50.614;13.830;2023-11-21T02:40:09;7.40;1.00
7214;DHT22;3648;50.614;13.830;2023-11-21T02:42:38;7.40;1.00
7214;DHT22;3648;50.614;13.830;2023-11-21T02:45:06;7.40;1.00
7214;DHT22;3648;50.614;13.830;2023-11-21T02:47:33;7.40;1.00
7214;DHT22;3648;50.614;13.830;2023-11-21T02:50:00;7.40;1.00
7214;DHT22;3648;50.614;13.830;2023-11-21T02:52:27;7.40;1.00
7214;DHT22;3648;50.614;13.830;2023-11-21T02:54:54;7.40;1.00
7214;DHT22;3648;50.614;13.830;2023-11-21T02:57:22;7.40;1.00
7214;DHT22;3648;50.614;13.830;2023-11-21T02:59:49;7.20;1.00
7214;DHT22;3648;50.614;13.830;2023-11-21T03:02:17;7.20;1.00
7214;DHT22;3648;50.614;13.830;2023-11-21T03:04:43;7.10;1.00
7214;DHT22;3648;50.614;13.830;2023-11-21T03:07:11;7.00;1.00
7214;DHT22;3648;50.614;13.830;2023-11-21T03:09:37;6.90;1.00
7214;DHT22;3648;50.614;13.830;2023-11-21T03:12:05;6.90;1.00
7214;DHT22;3648;50.614;13.830;2023-11-21T03:14:33;6.80;1.00
7214;DHT22;3648;50.614;13.830;2023-11-21T03:17:00;6.80;1.00
7214;DHT22;3648;50.614;13.830;2023-11-21T03:19:30;6.70;1.00
7214;DHT22;3648;50.614;13.830;2023-11-21T03:21:57;6.70;1.00
7214;DHT22;3648;50.614;13.830;2023-11-21T03:24:24;6.70;1.00
7214;DHT22;3648;50.614;13.830;2023-11-21T03:26:52;6.70;1.00
7214;DHT22;3648;50.614;13.830;2023-11-21T03:29:19;6.70;1.00
7214;DHT22;3648;50.614;13.830;2023-11-21T03:31:47;6.70;1.00
7214;DHT22;3648;50.614;13.830;2023-11-21T03:34:19;6.70;1.00
7214;DHT22;3648;50.614;13.830;2023-11-21T03:36:46;6.80;1.00
7214;DHT22;3648;50.614;13.830;2023-11-21T03:39:13;6.80;1.00
7214;DHT22;3648;50.614;13.830;2023-11-21T03:41:40;6.80;1.00
7214;DHT22;3648;50.614;13.830;2023-11-21T03:44:07;6.90;1.00
7214;DHT22;3648;50.614;13.830;2023-11-21T03:46:34;6.90;1.00
7214;DHT22;3648;50.614;13.830;2023-11-21T03:49:03;6.90;1.00
7214;DHT22;3648;50.614;13.830;2023-11-21T03:51:29;7.00;1.00
7214;DHT22;3648;50.614;13.830;2023-11-21T03:53:56;7.00;1.00
7214;DHT22;3648;50.614;13.830;2023-11-21T03:56:23;7.10;1.00
7214;DHT22;3648;50.614;13.830;2023-11-21T03:58:50;7.10;1.00
7214;DHT22;3648;50.614;13.830;2023-11-21T04:01:21;7.10;1.00
7214;DHT22;3648;50.614;13.830;2023-11-21T04:03:48;7.10;1.00
7214;DHT22;3648;50.614;13.830;2023-11-21T04:06:17;7.20;1.00
7214;DHT22;3648;50.614;13.830;2023-11-21T04:08:44;7.10;1.00
7214;DHT22;3648;50.614;13.830;2023-11-21T04:11:12;7.20;1.00
7214;DHT22;3648;50.614;13.830;2023-11-21T04:13:39;7.20;1.00
7214;DHT22;3648;50.614;13.830;2023-11-21T04:16:08;7.20;1.00
7214;DHT22;3648;50.614;13.830;2023-11-21T04:18:36;7.20;1.00
7214;DHT22;3648;50.614;13.830;2023-11-21T04:21:03;7.20;1.00
7214;DHT22;3648;50.614;13.830;2023-11-21T04:23:32;7.20;1.00
7214;DHT22;3648;50.614;13.830;2023-11-21T04:25:59;7.20;1.00
7214;DHT22;3648;50.614;13.830;2023-11-21T04:28:27;7.20;1.00
7214;DHT22;3648;50.614;13.830;2023-11-21T04:30:54;7.20;1.00
7214;DHT22;3648;50.614;13.830;2023-11-21T04:33:21;7.20;1.00
7214;DHT22;3648;50.614;13.830;2023-11-21T04:35:48;7.30;1.00
7214;DHT22;3648;50.614;13.830;2023-11-21T04:38:15;7.30;1.00
7214;DHT22;3648;50.614;13.830;2023-11-21T04:40:43;7.30;1.00
7214;DHT22;3648;50.614;13.830;2023-11-21T04:43:11;7.30;1.00
7214;DHT22;3648;50.614;13.830;2023-11-21T04:45:38;7.30;1.00
7214;DHT22;3648;50.614;13.830;2023-11-21T04:48:06;7.40;1.00
7214;DHT22;3648;50.614;13.830;2023-11-21T04:50:33;7.40;1.00
7214;DHT22;3648;50.614;13.830;2023-11-21T04:53:00;7.40;1.00
7214;DHT22;3648;50.614;13.830;2023-11-21T04:55:28;7.40;1.00
7214;DHT22;3648;50.614;13.830;2023-11-21T04:57:56;7.40;1.00
7214;DHT22;3648;50.614;13.830;2023-11-21T05:00:23;7.40;1.00
7214;DHT22;3648;50.614;13.830;2023-11-21T05:02:50;7.40;1.00
7214;DHT22;3648;50.614;13.830;2023-11-21T05:05:18;7.40;1.00
7214;DHT22;3648;50.614;13.830;2023-11-21T05:07:44;7.50;1.00
7214;DHT22;3648;50.614;13.830;2023-11-21T05:10:11;7.50;1.00
7214;DHT22;3648;50.614;13.830;2023-11-21T05:12:40;7.50;1.00
7214;DHT22;3648;50.614;13.830;2023-11-21T05:15:09;7.50;1.00
7214;DHT22;3648;50.614;13.830;2023-11-21T05:17:38;7.40;1.00
7214;DHT22;3648;50.614;13.830;2023-11-21T05:20:08;7.40;1.00
7214;DHT22;3648;50.614;13.830;2023-11-21T05:22:36;7.40;1.00
7214;DHT22;3648;50.614;13.830;2023-11-21T05:25:04;7.40;1.00
7214;DHT22;3648;50.614;13.830;2023-11-21T05:27:33;7.40;1.00
7214;DHT22;3648;50.614;13.830;2023-11-21T05:30:01;7.40;1.00
7214;DHT22;3648;50.614;13.830;2023-11-21T05:32:29;7.30;1.00
7214;DHT22;3648;50.614;13.830;2023-11-21T05:34:56;7.30;1.00
7214;DHT22;3648;50.614;13.830;2023-11-21T05:37:24;7.30;1.00
7214;DHT22;3648;50.614;13.830;2023-11-21T05:39:52;7.30;1.00
7214;DHT22;3648;50.614;13.830;2023-11-21T05:42:20;7.30;1.00
7214;DHT22;3648;50.614;13.830;2023-11-21T05:44:47;7.30;1.00
7214;DHT22;3648;50.614;13.830;2023-11-21T05:47:13;7.20;1.00
7214;DHT22;3648;50.614;13.830;2023-11-21T05:49:42;7.20;1.00
7214;DHT22;3648;50.614;13.830;2023-11-21T05:52:10;7.20;1.00
7214;DHT22;3648;50.614;13.830;2023-11-21T05:54:37;7.20;1.00
7214;DHT22;3648;50.614;13.830;2023-11-21T05:57:04;7.30;1.00
7214;DHT22;3648;50.614;13.830;2023-11-21T05:59:31;7.30;1.00
7214;DHT22;3648;50.614;13.830;2023-11-21T06:01:58;7.20;1.00
7214;DHT22;3648;50.614;13.830;2023-11-21T06:04:25;7.30;1.00
7214;DHT22;3648;50.614;13.830;2023-11-21T06:06:53;7.30;1.00
7214;DHT22;3648;50.614;13.830;2023-11-21T06:09:21;7.30;1.00
7214;DHT22;3648;50.614;13.830;2023-11-21T06:11:48;7.30;1.00
7214;DHT22;3648;50.614;13.830;2023-11-21T06:14:15;7.30;1.00
7214;DHT22;3648;50.614;13.830;2023-11-21T06:16:43;7.30;1.00
7214;DHT22;3648;50.614;13.830;2023-11-21T06:19:11;7.30;1.00
7214;DHT22;3648;50.614;13.830;2023-11-21T06:21:38;7.30;1.00
7214;DHT22;3648;50.614;13.830;2023-11-21T06:24:07;7.30;1.00
7214;DHT22;3648;50.614;13.830;2023-11-21T06:26:34;7.30;1.00
7214;DHT22;3648;50.614;13.830;2023-11-21T06:29:01;7.30;1.00
7214;DHT22;3648;50.614;13.830;2023-11-21T06:31:29;7.30;1.00
7214;DHT22;3648;50.614;13.830;2023-11-21T06:33:57;7.30;1.00
7214;DHT22;3648;50.614;13.830;2023-11-21T06:36:26;7.30;1.00
7214;DHT22;3648;50.614;13.830;2023-11-21T06:38:53;7.30;1.00
7214;DHT22;3648;50.614;13.830;2023-11-21T06:41:22;7.30;1.00
7214;DHT22;3648;50.614;13.830;2023-11-21T06:43:49;7.30;1.00
7214;DHT22;3648;50.614;13.830;2023-11-21T06:46:16;7.30;1.00
7214;DHT22;3648;50.614;13.830;2023-11-21T06:48:44;7.40;1.00
7214;DHT22;3648;50.614;13.830;2023-11-21T06:51:11;7.40;1.00
7214;DHT22;3648;50.614;13.830;2023-11-21T06:53:38;7.40;1.00
7214;DHT22;3648;50.614;13.830;2023-11-21T06:56:15;7.40;1.00
7214;DHT22;3648;50.614;13.830;2023-11-21T06:58:44;7.30;1.00
7214;DHT22;3648;50.614;13.830;2023-11-21T07:01:12;7.30;1.00
7214;DHT22;3648;50.614;13.830;2023-11-21T07:03:39;7.30;1.00
7214;DHT22;3648;50.614;13.830;2023-11-21T07:06:07;7.30;1.00
7214;DHT22;3648;50.614;13.830;2023-11-21T07:08:34;7.20;1.00
7214;DHT22;3648;50.614;13.830;2023-11-21T07:11:02;7.20;1.00
7214;DHT22;3648;50.614;13.830;2023-11-21T07:13:29;7.20;1.00
7214;DHT22;3648;50.614;13.830;2023-11-21T07:15:58;7.20;1.00
7214;DHT22;3648;50.614;13.830;2023-11-21T07:18:25;7.20;1.00
7214;DHT22;3648;50.614;13.830;2023-11-21T07:20:52;7.10;1.00
7214;DHT22;3648;50.614;13.830;2023-11-21T07:23:19;7.10;1.00
7214;DHT22;3648;50.614;13.830;2023-11-21T07:25:48;7.10;1.00
7214;DHT22;3648;50.614;13.830;2023-11-21T07:28:15;7.10;1.00
7214;DHT22;3648;50.614;13.830;2023-11-21T07:30:42;7.10;1.00
7214;DHT22;3648;50.614;13.830;2023-11-21T07:33:11;7.10;1.00
7214;DHT22;3648;50.614;13.830;2023-11-21T07:35:38;7.10;1.00
7214;DHT22;3648;50.614;13.830;2023-11-21T07:38:05;7.20;1.00
7214;DHT22;3648;50.614;13.830;2023-11-21T07:40:32;7.20;1.00
7214;DHT22;3648;50.614;13.830;2023-11-21T07:42:59;7.20;1.00
7214;DHT22;3648;50.614;13.830;2023-11-21T07:45:26;7.20;1.00
7214;DHT22;3648;50.614;13.830;2023-11-21T07:47:54;7.20;1.00
7214;DHT22;3648;50.614;13.830;2023-11-21T07:50:22;7.20;1.00
7214;DHT22;3648;50.614;13.830;2023-11-21T07:52:49;7.20;1.00
7214;DHT22;3648;50.614;13.830;2023-11-21T07:55:16;7.20;1.00
7214;DHT22;3648;50.614;13.830;2023-11-21T07:57:43;7.30;1.00
7214;DHT22;3648;50.614;13.830;2023-11-21T08:00:11;7.30;1.00
7214;DHT22;3648;50.614;13.830;2023-11-21T08:02:41;7.30;1.00
7214;DHT22;3648;50.614;13.830;2023-11-21T08:05:11;7.40;1.00
7214;DHT22;3648;50.614;13.830;2023-11-21T08:07:40;7.40;1.00
7214;DHT22;3648;50.614;13.830;2023-11-21T08:10:08;7.40;1.00
7214;DHT22;3648;50.614;13.830;2023-11-21T08:12:36;7.50;1.00
7214;DHT22;3648;50.614;13.830;2023-11-21T08:15:05;7.50;1.00
7214;DHT22;3648;50.614;13.830;2023-11-21T08:17:33;7.60;1.00
7214;DHT22;3648;50.614;13.830;2023-11-21T08:20:00;7.60;1.00
7214;DHT22;3648;50.614;13.830;2023-11-21T08:22:29;7.70;1.00
7214;DHT22;3648;50.614;13.830;2023-11-21T08:24:57;7.70;1.00
7214;DHT22;3648;50.614;13.830;2023-11-21T08:27:24;7.80;1.00
7214;DHT22;3648;50.614;13.830;2023-11-21T08:29:51;7.80;1.00
7214;DHT22;3648;50.614;13.830;2023-11-21T08:32:18;7.80;1.00
7214;DHT22;3648;50.614;13.830;2023-11-21T08:34:45;7.90;1.00
7214;DHT22;3648;50.614;13.830;2023-11-21T08:37:16;7.90;1.00
7214;DHT22;3648;50.614;13.830;2023-11-21T08:39:44;8.00;1.00
7214;DHT22;3648;50.614;13.830;2023-11-21T08:42:12;8.00;1.00
7214;DHT22;3648;50.614;13.830;2023-11-21T08:44:39;8.10;1.00
7214;DHT22;3648;50.614;13.830;2023-11-21T08:47:05;8.20;1.00
7214;DHT22;3648;50.614;13.830;2023-11-21T08:49:37;8.30;1.00
7214;DHT22;3648;50.614;13.830;2023-11-21T08:52:04;8.40;1.00
7214;DHT22;3648;50.614;13.830;2023-11-21T08:54:32;8.40;1.00
7214;DHT22;3648;50.614;13.830;2023-11-21T08:57:00;8.40;1.00
7214;DHT22;3648;50.614;13.830;2023-11-21T08:59:28;8.50;1.00
7214;DHT22;3648;50.614;13.830;2023-11-21T09:01:55;8.50;1.00
7214;DHT22;3648;50.614;13.830;2023-11-21T09:04:22;8.50;1.00
7214;DHT22;3648;50.614;13.830;2023-11-21T09:06:49;8.60;1.00
7214;DHT22;3648;50.614;13.830;2023-11-21T09:09:16;8.60;1.00
7214;DHT22;3648;50.614;13.830;2023-11-21T09:11:43;8.50;1.00
7214;DHT22;3648;50.614;13.830;2023-11-21T09:14:11;8.60;1.00
7214;DHT22;3648;50.614;13.830;2023-11-21T09:16:40;8.60;1.00
7214;DHT22;3648;50.614;13.830;2023-11-21T09:19:07;8.50;1.00
7214;DHT22;3648;50.614;13.830;2023-11-21T09:21:34;8.60;1.00
7214;DHT22;3648;50.614;13.830;2023-11-21T09:24:01;8.70;1.00
7214;DHT22;3648;50.614;13.830;2023-11-21T09:26:28;8.70;1.00
7214;DHT22;3648;50.614;13.830;2023-11-21T09:28:55;8.70;1.00
7214;DHT22;3648;50.614;13.830;2023-11-21T09:31:22;8.80;1.00
7214;DHT22;3648;50.614;13.830;2023-11-21T09:33:51;8.80;1.00
7214;DHT22;3648;50.614;13.830;2023-11-21T09:36:18;8.90;1.00
7214;DHT22;3648;50.614;13.830;2023-11-21T09:38:47;8.90;1.00
7214;DHT22;3648;50.614;13.830;2023-11-21T09:41:19;8.90;1.00
7214;DHT22;3648;50.614;13.830;2023-11-21T09:43:49;8.90;1.00
7214;DHT22;3648;50.614;13.830;2023-11-21T09:46:20;9.00;1.00
7214;DHT22;3648;50.614;13.830;2023-11-21T09:48:52;8.90;1.00
7214;DHT22;3648;50.614;13.830;2023-11-21T09:51:20;9.00;1.00
7214;DHT22;3648;50.614;13.830;2023-11-21T09:53:50;9.10;1.00
7214;DHT22;3648;50.614;13.830;2023-11-21T09:56:18;9.20;1.00
7214;DHT22;3648;50.614;13.830;2023-11-21T09:58:51;9.20;1.00
7214;DHT22;3648;50.614;13.830;2023-11-21T10:01:19;9.20;1.00
7214;DHT22;3648;50.614;13.830;2023-11-21T10:03:47;9.30;1.00
7214;DHT22;3648;50.614;13.830;2023-11-21T10:06:18;9.30;1.00
7214;DHT22;3648;50.614;13.830;2023-11-21T10:08:46;9.30;1.00
7214;DHT22;3648;50.614;13.830;2023-11-21T10:11:15;9.40;1.00
7214;DHT22;3648;50.614;13.830;2023-11-21T10:13:43;9.30;1.00
7214;DHT22;3648;50.614;13.830;2023-11-21T10:16:14;9.30;1.00
7214;DHT22;3648;50.614;13.830;2023-11-21T10:18:43;9.40;1.00
7214;DHT22;3648;50.614;13.830;2023-11-21T10:21:11;9.30;1.00
7214;DHT22;3648;50.614;13.830;2023-11-21T10:23:40;9.40;1.00
7214;DHT22;3648;50.614;13.830;2023-11-21T10:26:11;9.50;1.00
7214;DHT22;3648;50.614;13.830;2023-11-21T10:28:41;9.40;1.00
7214;DHT22;3648;50.614;13.830;2023-11-21T10:31:08;9.50;1.00
7214;DHT22;3648;50.614;13.830;2023-11-21T10:33:36;9.50;1.00
7214;DHT22;3648;50.614;13.830;2023-11-21T10:36:03;9.40;1.00
7214;DHT22;3648;50.614;13.830;2023-11-21T10:38:33;9.40;1.00
7214;DHT22;3648;50.614;13.830;2023-11-21T10:41:11;9.30;1.00
7214;DHT22;3648;50.614;13.830;2023-11-21T10:43:41;9.30;1.00
7214;DHT22;3648;50.614;13.830;2023-11-21T10:46:08;9.20;1.00
7214;DHT22;3648;50.614;13.830;2023-11-21T10:48:35;9.20;1.00
7214;DHT22;3648;50.614;13.830;2023-11-21T10:51:07;9.20;1.00
7214;DHT22;3648;50.614;13.830;2023-11-21T10:53:38;9.20;1.00
7214;DHT22;3648;50.614;13.830;2023-11-21T10:56:08;9.20;1.00
7214;DHT22;3648;50.614;13.830;2023-11-21T10:58:38;9.20;1.00
7214;DHT22;3648;50.614;13.830;2023-11-21T11:01:06;9.20;1.00
7214;DHT22;3648;50.614;13.830;2023-11-21T11:03:36;9.20;1.00
7214;DHT22;3648;50.614;13.830;2023-11-21T11:06:05;9.10;1.00
7214;DHT22;3648;50.614;13.830;2023-11-21T11:08:36;9.10;1.00
7214;DHT22;3648;50.614;13.830;2023-11-21T11:11:04;9.10;1.00
7214;DHT22;3648;50.614;13.830;2023-11-21T11:13:32;9.10;1.00
7214;DHT22;3648;50.614;13.830;2023-11-21T11:16:01;9.20;1.00
7214;DHT22;3648;50.614;13.830;2023-11-21T11:18:28;9.20;1.00
7214;DHT22;3648;50.614;13.830;2023-11-21T11:21:01;9.20;1.00
7214;DHT22;3648;50.614;13.830;2023-11-21T11:23:46;9.20;1.00
7214;DHT22;3648;50.614;13.830;2023-11-21T11:26:24;9.30;1.00
7214;DHT22;3648;50.614;13.830;2023-11-21T11:29:00;9.20;1.00
7214;DHT22;3648;50.614;13.830;2023-11-21T11:31:39;9.20;1.00
7214;DHT22;3648;50.614;13.830;2023-11-21T11:34:19;9.20;1.00
7214;DHT22;3648;50.614;13.830;2023-11-21T11:36:56;9.20;1.00
7214;DHT22;3648;50.614;13.830;2023-11-21T11:39:29;9.20;1.00
7214;DHT22;3648;50.614;13.830;2023-11-21T11:41:57;9.20;1.00
7214;DHT22;3648;50.614;13.830;2023-11-21T11:44:47;9.30;1.00
7214;DHT22;3648;50.614;13.830;2023-11-21T11:47:20;9.30;1.00
7214;DHT22;3648;50.614;13.830;2023-11-21T11:49:58;9.30;1.00
7214;DHT22;3648;50.614;13.830;2023-11-21T11:52:33;9.20;1.00
7214;DHT22;3648;50.614;13.830;2023-11-21T11:55:01;9.30;1.00
7214;DHT22;3648;50.614;13.830;2023-11-21T11:57:30;9.20;1.00
7214;DHT22;3648;50.614;13.830;2023-11-21T12:00:09;9.20;1.00
7214;DHT22;3648;50.614;13.830;2023-11-21T12:02:38;9.30;1.00
7214;DHT22;3648;50.614;13.830;2023-11-21T12:05:09;9.30;1.00
7214;DHT22;3648;50.614;13.830;2023-11-21T12:07:45;9.20;1.00
7214;DHT22;3648;50.614;13.830;2023-11-21T12:10:14;9.20;1.00
7214;DHT22;3648;50.614;13.830;2023-11-21T12:12:44;9.20;1.00
7214;DHT22;3648;50.614;13.830;2023-11-21T12:15:12;9.20;1.00
7214;DHT22;3648;50.614;13.830;2023-11-21T12:17:42;9.20;1.00
7214;DHT22;3648;50.614;13.830;2023-11-21T12:20:10;9.20;1.00
7214;DHT22;3648;50.614;13.830;2023-11-21T12:22:45;9.20;1.00
7214;DHT22;3648;50.614;13.830;2023-11-21T12:25:15;9.20;1.00
7214;DHT22;3648;50.614;13.830;2023-11-21T12:27:44;9.20;1.00
7214;DHT22;3648;50.614;13.830;2023-11-21T12:30:13;9.10;1.00
7214;DHT22;3648;50.614;13.830;2023-11-21T12:32:43;9.00;1.00
7214;DHT22;3648;50.614;13.830;2023-11-21T12:35:11;9.00;1.00
7214;DHT22;3648;50.614;13.830;2023-11-21T12:37:39;8.90;1.00
7214;DHT22;3648;50.614;13.830;2023-11-21T12:40:09;8.90;1.00
7214;DHT22;3648;50.614;13.830;2023-11-21T12:42:39;8.90;1.00
7214;DHT22;3648;50.614;13.830;2023-11-21T12:45:10;8.90;1.00
7214;DHT22;3648;50.614;13.830;2023-11-21T12:47:48;8.90;1.00
7214;DHT22;3648;50.614;13.830;2023-11-21T12:50:18;8.80;1.00
7214;DHT22;3648;50.614;13.830;2023-11-21T12:52:50;8.80;1.00
7214;DHT22;3648;50.614;13.830;2023-11-21T12:55:18;8.80;1.00
7214;DHT22;3648;50.614;13.830;2023-11-21T12:57:48;8.80;1.00
7214;DHT22;3648;50.614;13.830;2023-11-21T13:00:18;8.60;1.00
7214;DHT22;3648;50.614;13.830;2023-11-21T13:02:55;8.70;1.00
7214;DHT22;3648;50.614;13.830;2023-11-21T13:05:25;8.60;1.00
7214;DHT22;3648;50.614;13.830;2023-11-21T13:07:52;8.50;1.00
7214;DHT22;3648;50.614;13.830;2023-11-21T13:10:21;8.50;1.00
7214;DHT22;3648;50.614;13.830;2023-11-21T13:12:51;8.50;1.00
7214;DHT22;3648;50.614;13.830;2023-11-21T13:15:20;8.40;1.00
7214;DHT22;3648;50.614;13.830;2023-11-21T13:17:47;8.40;1.00
7214;DHT22;3648;50.614;13.830;2023-11-21T13:20:17;8.30;1.00
7214;DHT22;3648;50.614;13.830;2023-11-21T13:22:49;8.20;1.00
7214;DHT22;3648;50.614;13.830;2023-11-21T13:25:17;8.20;1.00
7214;DHT22;3648;50.614;13.830;2023-11-21T13:27:45;8.10;1.00
7214;DHT22;3648;50.614;13.830;2023-11-21T13:30:13;8.00;1.00
7214;DHT22;3648;50.614;13.830;2023-11-21T13:32:44;7.80;1.00
7214;DHT22;3648;50.614;13.830;2023-11-21T13:35:12;7.80;1.00
7214;DHT22;3648;50.614;13.830;2023-11-21T13:37:51;7.70;1.00
7214;DHT22;3648;50.614;13.830;2023-11-21T13:40:21;7.70;1.00
7214;DHT22;3648;50.614;13.830;2023-11-21T13:42:53;7.60;1.00
7214;DHT22;3648;50.614;13.830;2023-11-21T13:45:21;7.70;1.00
7214;DHT22;3648;50.614;13.830;2023-11-21T13:47:50;7.60;1.00
7214;DHT22;3648;50.614;13.830;2023-11-21T13:50:23;7.60;1.00
7214;DHT22;3648;50.614;13.830;2023-11-21T13:52:56;7.50;1.00
7214;DHT22;3648;50.614;13.830;2023-11-21T13:55:23;7.50;1.00
7214;DHT22;3648;50.614;13.830;2023-11-21T13:57:51;7.50;1.00
7214;DHT22;3648;50.614;13.830;2023-11-21T14:00:19;7.40;1.00
7214;DHT22;3648;50.614;13.830;2023-11-21T14:03:03;7.20;1.00
7214;DHT22;3648;50.614;13.830;2023-11-21T14:05:36;7.20;1.00
7214;DHT22;3648;50.614;13.830;2023-11-21T14:08:04;7.10;1.00
7214;DHT22;3648;50.614;13.830;2023-11-21T14:10:31;7.00;1.00
7214;DHT22;3648;50.614;13.830;2023-11-21T14:13:06;6.90;1.00
7214;DHT22;3648;50.614;13.830;2023-11-21T14:15:33;6.90;1.00
7214;DHT22;3648;50.614;13.830;2023-11-21T14:18:04;6.80;1.00
7214;DHT22;3648;50.614;13.830;2023-11-21T14:20:33;6.80;1.00
7214;DHT22;3648;50.614;13.830;2023-11-21T14:23:02;6.70;1.00
7214;DHT22;3648;50.614;13.830;2023-11-21T14:25:30;6.80;1.00
7214;DHT22;3648;50.614;13.830;2023-11-21T14:27:57;6.70;1.00
7214;DHT22;3648;50.614;13.830;2023-11-21T14:30:24;6.70;1.00
7214;DHT22;3648;50.614;13.830;2023-11-21T14:32:52;6.60;1.00
7214;DHT22;3648;50.614;13.830;2023-11-21T14:35:19;6.60;1.00
7214;DHT22;3648;50.614;13.830;2023-11-21T14:37:46;6.60;1.00
7214;DHT22;3648;50.614;13.830;2023-11-21T14:40:13;6.60;1.00
7214;DHT22;3648;50.614;13.830;2023-11-21T14:42:44;6.50;1.00
7214;DHT22;3648;50.614;13.830;2023-11-21T14:45:15;6.40;1.00
7214;DHT22;3648;50.614;13.830;2023-11-21T14:47:45;6.40;1.00
7214;DHT22;3648;50.614;13.830;2023-11-21T14:50:20;6.40;1.00
7214;DHT22;3648;50.614;13.830;2023-11-21T14:53:01;6.40;1.00
7214;DHT22;3648;50.614;13.830;2023-11-21T14:55:31;6.40;1.00
7214;DHT22;3648;50.614;13.830;2023-11-21T14:58:06;6.30;1.00
7214;DHT22;3648;50.614;13.830;2023-11-21T15:00:38;6.40;1.00
7214;DHT22;3648;50.614;13.830;2023-11-21T15:03:10;6.30;1.00
7214;DHT22;3648;50.614;13.830;2023-11-21T15:05:52;6.30;1.00
7214;DHT22;3648;50.614;13.830;2023-11-21T15:08:19;6.30;1.00
7214;DHT22;3648;50.614;13.830;2023-11-21T15:10:51;6.30;1.00
7214;DHT22;3648;50.614;13.830;2023-11-21T15:13:21;6.30;1.00
7214;DHT22;3648;50.614;13.830;2023-11-21T15:15:49;6.30;1.00
7214;DHT22;3648;50.614;13.830;2023-11-21T15:18:16;6.30;1.00
7214;DHT22;3648;50.614;13.830;2023-11-21T15:20:44;6.30;1.00
7214;DHT22;3648;50.614;13.830;2023-11-21T15:23:11;6.20;1.00
7214;DHT22;3648;50.614;13.830;2023-11-21T15:25:38;6.30;1.00
7214;DHT22;3648;50.614;13.830;2023-11-21T15:28:07;6.20;1.00
7214;DHT22;3648;50.614;13.830;2023-11-21T15:30:36;6.20;1.00
7214;DHT22;3648;50.614;13.830;2023-11-21T15:33:03;6.20;1.00
7214;DHT22;3648;50.614;13.830;2023-11-21T15:35:31;6.10;1.00
7214;DHT22;3648;50.614;13.830;2023-11-21T15:37:59;6.00;1.00
7214;DHT22;3648;50.614;13.830;2023-11-21T15:40:26;6.00;1.00
7214;DHT22;3648;50.614;13.830;2023-11-21T15:42:53;6.00;1.00
7214;DHT22;3648;50.614;13.830;2023-11-21T15:45:20;6.00;1.00
7214;DHT22;3648;50.614;13.830;2023-11-21T15:47:51;6.00;1.00
7214;DHT22;3648;50.614;13.830;2023-11-21T15:50:19;6.00;1.00
7214;DHT22;3648;50.614;13.830;2023-11-21T15:52:46;5.90;1.00
7214;DHT22;3648;50.614;13.830;2023-11-21T15:55:13;5.80;1.00
7214;DHT22;3648;50.614;13.830;2023-11-21T15:57:40;5.80;1.00
7214;DHT22;3648;50.614;13.830;2023-11-21T16:00:09;5.70;1.00
7214;DHT22;3648;50.614;13.830;2023-11-21T16:02:42;5.70;1.00
7214;DHT22;3648;50.614;13.830;2023-11-21T16:05:11;5.60;1.00
7214;DHT22;3648;50.614;13.830;2023-11-21T16:07:39;5.50;1.00
7214;DHT22;3648;50.614;13.830;2023-11-21T16:10:07;5.50;1.00
7214;DHT22;3648;50.614;13.830;2023-11-21T16:12:36;5.40;1.00
7214;DHT22;3648;50.614;13.830;2023-11-21T16:15:04;5.40;1.00
7214;DHT22;3648;50.614;13.830;2023-11-21T16:17:34;5.30;1.00
7214;DHT22;3648;50.614;13.830;2023-11-21T16:20:01;5.30;1.00
7214;DHT22;3648;50.614;13.830;2023-11-21T16:22:33;5.20;1.00
7214;DHT22;3648;50.614;13.830;2023-11-21T16:25:00;5.20;1.00
7214;DHT22;3648;50.614;13.830;2023-11-21T16:27:27;5.10;1.00